sensor_id;sensor_type;location;lat;lon;timestamp;temperature;humidity
8914;DHT22;4492;48.736;9.092;2023-04-24T00:01:48;9.00;99.90
8914;DHT22;4492;48.736;9.092;2023-04-24T00:04:13;9.00;99.90
8914;DHT22;4492;48.736;9.092;2023-04-24T00:06:42;9.00;99.90
8914;DHT22;4492;48.736;9.092;2023-04-24T00:09:11;9.00;99.90
8914;DHT22;4492;48.736;9.092;2023-04-24T00:11:37;9.10;99.90
8914;DHT22;4492;48.736;9.092;2023-04-24T00:14:03;9.10;99.90
8914;DHT22;4492;48.736;9.092;2023-04-24T00:16:28;9.20;99.90
8914;DHT22;4492;48.736;9.092;2023-04-24T00:18:54;9.10;99.90
8914;DHT22;4492;48.736;9.092;2023-04-24T00:21:20;9.20;99.90
8914;DHT22;4492;48.736;9.092;2023-04-24T00:23:47;9.20;99.90
8914;DHT22;4492;48.736;9.092;2023-04-24T00:26:13;9.20;99.90
8914;DHT22;4492;48.736;9.092;2023-04-24T00:28:39;9.20;99.90
8914;DHT22;4492;48.736;9.092;2023-04-24T00:31:04;9.30;99.90
8914;DHT22;4492;48.736;9.092;2023-04-24T00:33:30;9.30;99.90
8914;DHT22;4492;48.736;9.092;2023-04-24T00:35:56;9.30;99.90
8914;DHT22;4492;48.736;9.092;2023-04-24T00:38:21;9.30;99.90
8914;DHT22;4492;48.736;9.092;2023-04-24T00:40:48;9.30;99.90
8914;DHT22;4492;48.736;9.092;2023-04-24T00:43:15;9.30;99.90
8914;DHT22;4492;48.736;9.092;2023-04-24T00:45:41;9.30;99.90
8914;DHT22;4492;48.736;9.092;2023-04-24T00:48:07;9.30;99.90
8914;DHT22;4492;48.736;9.092;2023-04-24T00:50:36;9.30;99.90
8914;DHT22;4492;48.736;9.092;2023-04-24T00:53:01;9.30;99.90
8914;DHT22;4492;48.736;9.092;2023-04-24T00:55:27;9.30;99.90
8914;DHT22;4492;48.736;9.092;2023-04-24T00:57:53;9.30;99.90
8914;DHT22;4492;48.736;9.092;2023-04-24T01:00:19;9.30;99.90
8914;DHT22;4492;48.736;9.092;2023-04-24T01:02:45;9.30;99.90
8914;DHT22;4492;48.736;9.092;2023-04-24T01:05:15;9.30;99.90
8914;DHT22;4492;48.736;9.092;2023-04-24T01:07:45;9.30;99.90
8914;DHT22;4492;48.736;9.092;2023-04-24T01:10:11;9.30;99.90
8914;DHT22;4492;48.736;9.092;2023-04-24T01:12:38;9.30;99.90
8914;DHT22;4492;48.736;9.092;2023-04-24T01:15:04;9.30;99.90
8914;DHT22;4492;48.736;9.092;2023-04-24T01:17:32;9.30;99.90
8914;DHT22;4492;48.736;9.092;2023-04-24T01:19:58;9.30;99.90
8914;DHT22;4492;48.736;9.092;2023-04-24T01:22:25;9.30;99.90
8914;DHT22;4492;48.736;9.092;2023-04-24T01:24:51;9.40;99.90
8914;DHT22;4492;48.736;9.092;2023-04-24T01:27:17;9.30;99.90
8914;DHT22;4492;48.736;9.092;2023-04-24T01:29:44;9.40;99.90
8914;DHT22;4492;48.736;9.092;2023-04-24T01:32:09;9.30;99.90
8914;DHT22;4492;48.736;9.092;2023-04-24T01:34:35;9.30;99.90
8914;DHT22;4492;48.736;9.092;2023-04-24T01:37:01;9.30;99.90
8914;DHT22;4492;48.736;9.092;2023-04-24T01:39:27;9.20;99.90
8914;DHT22;4492;48.736;9.092;2023-04-24T01:41:54;9.10;99.90
8914;DHT22;4492;48.736;9.092;2023-04-24T01:44:21;9.10;99.90
8914;DHT22;4492;48.736;9.092;2023-04-24T01:46:46;9.10;99.90
8914;DHT22;4492;48.736;9.092;2023-04-24T01:49:12;9.10;99.90
8914;DHT22;4492;48.736;9.092;2023-04-24T01:51:38;9.00;99.90
8914;DHT22;4492;48.736;9.092;2023-04-24T01:54:04;9.00;99.90
8914;DHT22;4492;48.736;9.092;2023-04-24T01:56:33;9.00;99.90
8914;DHT22;4492;48.736;9.092;2023-04-24T01:58:59;8.90;99.90
8914;DHT22;4492;48.736;9.092;2023-04-24T02:01:25;9.00;99.90
8914;DHT22;4492;48.736;9.092;2023-04-24T02:03:51;8.90;99.90
8914;DHT22;4492;48.736;9.092;2023-04-24T02:06:17;8.90;99.90
8914;DHT22;4492;48.736;9.092;2023-04-24T02:08:42;8.90;99.90
8914;DHT22;4492;48.736;9.092;2023-04-24T02:11:11;9.00;99.90
8914;DHT22;4492;48.736;9.092;2023-04-24T02:13:37;9.00;99.90
8914;DHT22;4492;48.736;9.092;2023-04-24T02:16:02;9.00;99.90
8914;DHT22;4492;48.736;9.092;2023-04-24T02:18:28;8.90;99.90
8914;DHT22;4492;48.736;9.092;2023-04-24T02:20:54;8.90;99.90
8914;DHT22;4492;48.736;9.092;2023-04-24T02:23:20;8.90;99.90
8914;DHT22;4492;48.736;9.092;2023-04-24T02:25:45;8.90;99.90
8914;DHT22;4492;48.736;9.092;2023-04-24T02:28:11;8.90;99.90
8914;DHT22;4492;48.736;9.092;2023-04-24T02:30:37;8.80;99.90
8914;DHT22;4492;48.736;9.092;2023-04-24T02:33:03;8.90;99.90
8914;DHT22;4492;48.736;9.092;2023-04-24T02:35:28;8.90;99.90
8914;DHT22;4492;48.736;9.092;2023-04-24T02:37:55;8.90;99.90
8914;DHT22;4492;48.736;9.092;2023-04-24T02:40:20;8.90;99.90
8914;DHT22;4492;48.736;9.092;2023-04-24T02:42:46;8.90;99.90
8914;DHT22;4492;48.736;9.092;2023-04-24T02:45:12;8.90;99.90
8914;DHT22;4492;48.736;9.092;2023-04-24T02:47:38;8.90;99.90
8914;DHT22;4492;48.736;9.092;2023-04-24T02:50:04;8.90;99.90
8914;DHT22;4492;48.736;9.092;2023-04-24T02:52:30;8.90;99.90
8914;DHT22;4492;48.736;9.092;2023-04-24T02:54:55;8.90;99.90
8914;DHT22;4492;48.736;9.092;2023-04-24T02:57:21;8.80;99.90
8914;DHT22;4492;48.736;9.092;2023-04-24T02:59:47;8.80;99.90
8914;DHT22;4492;48.736;9.092;2023-04-24T03:02:13;8.80;99.90
8914;DHT22;4492;48.736;9.092;2023-04-24T03:04:38;8.80;99.90
8914;DHT22;4492;48.736;9.092;2023-04-24T03:07:05;8.80;99.90
8914;DHT22;4492;48.736;9.092;2023-04-24T03:09:31;8.80;99.90
8914;DHT22;4492;48.736;9.092;2023-04-24T03:11:56;8.70;99.90
8914;DHT22;4492;48.736;9.092;2023-04-24T03:14:23;8.60;99.90
8914;DHT22;4492;48.736;9.092;2023-04-24T03:16:49;8.60;99.90
8914;DHT22;4492;48.736;9.092;2023-04-24T03:19:15;8.50;99.90
8914;DHT22;4492;48.736;9.092;2023-04-24T03:21:41;8.40;99.90
8914;DHT22;4492;48.736;9.092;2023-04-24T03:24:08;8.40;99.90
8914;DHT22;4492;48.736;9.092;2023-04-24T03:26:34;8.40;99.90
8914;DHT22;4492;48.736;9.092;2023-04-24T03:29:00;8.30;99.90
8914;DHT22;4492;48.736;9.092;2023-04-24T03:31:26;8.40;99.90
8914;DHT22;4492;48.736;9.092;2023-04-24T03:33:52;8.30;99.90
8914;DHT22;4492;48.736;9.092;2023-04-24T03:36:17;8.30;99.90
8914;DHT22;4492;48.736;9.092;2023-04-24T03:38:44;8.30;99.90
8914;DHT22;4492;48.736;9.092;2023-04-24T03:41:10;8.40;99.90
8914;DHT22;4492;48.736;9.092;2023-04-24T03:43:37;8.40;99.90
8914;DHT22;4492;48.736;9.092;2023-04-24T03:46:03;8.40;99.90
8914;DHT22;4492;48.736;9.092;2023-04-24T03:48:29;8.30;99.90
8914;DHT22;4492;48.736;9.092;2023-04-24T03:50:55;8.30;99.90
8914;DHT22;4492;48.736;9.092;2023-04-24T03:53:20;8.20;99.90
8914;DHT22;4492;48.736;9.092;2023-04-24T03:55:46;8.20;99.90
8914;DHT22;4492;48.736;9.092;2023-04-24T03:58:12;8.10;99.90
8914;DHT22;4492;48.736;9.092;2023-04-24T04:00:41;8.10;99.90
8914;DHT22;4492;48.736;9.092;2023-04-24T04:03:06;8.10;99.90
8914;DHT22;4492;48.736;9.092;2023-04-24T04:05:32;8.00;99.90
8914;DHT22;4492;48.736;9.092;2023-04-24T04:07:58;8.00;99.90
8914;DHT22;4492;48.736;9.092;2023-04-24T04:10:23;8.00;99.90
8914;DHT22;4492;48.736;9.092;2023-04-24T04:12:49;8.00;99.90
8914;DHT22;4492;48.736;9.092;2023-04-24T04:15:15;8.10;99.90
8914;DHT22;4492;48.736;9.092;2023-04-24T04:17:40;8.10;99.90
8914;DHT22;4492;48.736;9.092;2023-04-24T04:20:07;8.20;99.90
8914;DHT22;4492;48.736;9.092;2023-04-24T04:22:35;8.30;99.90
8914;DHT22;4492;48.736;9.092;2023-04-24T04:25:02;8.30;99.90
8914;DHT22;4492;48.736;9.092;2023-04-24T04:27:28;8.40;99.90
8914;DHT22;4492;48.736;9.092;2023-04-24T04:29:54;8.40;99.90
8914;DHT22;4492;48.736;9.092;2023-04-24T04:32:22;8.50;99.90
8914;DHT22;4492;48.736;9.092;2023-04-24T04:34:47;8.40;99.90
8914;DHT22;4492;48.736;9.092;2023-04-24T04:37:14;8.20;99.90
8914;DHT22;4492;48.736;9.092;2023-04-24T04:39:40;8.20;99.90
8914;DHT22;4492;48.736;9.092;2023-04-24T04:42:06;8.00;99.90
8914;DHT22;4492;48.736;9.092;2023-04-24T04:44:32;7.90;99.90
8914;DHT22;4492;48.736;9.092;2023-04-24T04:46:58;7.80;99.90
8914;DHT22;4492;48.736;9.092;2023-04-24T04:49:25;7.80;99.90
8914;DHT22;4492;48.736;9.092;2023-04-24T04:51:53;7.60;99.90
8914;DHT22;4492;48.736;9.092;2023-04-24T04:54:19;7.60;99.90
8914;DHT22;4492;48.736;9.092;2023-04-24T04:56:45;7.50;99.90
8914;DHT22;4492;48.736;9.092;2023-04-24T04:59:10;7.50;99.90
8914;DHT22;4492;48.736;9.092;2023-04-24T05:01:36;7.50;99.90
8914;DHT22;4492;48.736;9.092;2023-04-24T05:04:02;7.50;99.90
8914;DHT22;4492;48.736;9.092;2023-04-24T05:06:27;7.50;99.90
8914;DHT22;4492;48.736;9.092;2023-04-24T05:08:53;7.50;99.90
8914;DHT22;4492;48.736;9.092;2023-04-24T05:11:22;7.50;99.90
8914;DHT22;4492;48.736;9.092;2023-04-24T05:13:48;7.50;99.90
8914;DHT22;4492;48.736;9.092;2023-04-24T05:16:14;7.50;99.90
8914;DHT22;4492;48.736;9.092;2023-04-24T05:18:39;7.60;99.90
8914;DHT22;4492;48.736;9.092;2023-04-24T05:21:05;7.60;99.90
8914;DHT22;4492;48.736;9.092;2023-04-24T05:23:31;7.70;99.90
8914;DHT22;4492;48.736;9.092;2023-04-24T05:25:57;7.70;99.90
8914;DHT22;4492;48.736;9.092;2023-04-24T05:28:22;7.70;99.90
8914;DHT22;4492;48.736;9.092;2023-04-24T05:30:48;7.70;99.90
8914;DHT22;4492;48.736;9.092;2023-04-24T05:33:14;7.80;99.90
8914;DHT22;4492;48.736;9.092;2023-04-24T05:35:40;7.90;99.90
8914;DHT22;4492;48.736;9.092;2023-04-24T05:38:11;7.70;99.90
8914;DHT22;4492;48.736;9.092;2023-04-24T05:40:37;7.70;99.90
8914;DHT22;4492;48.736;9.092;2023-04-24T05:43:02;7.80;99.90
8914;DHT22;4492;48.736;9.092;2023-04-24T05:45:28;7.70;99.90
8914;DHT22;4492;48.736;9.092;2023-04-24T05:47:54;7.80;99.90
8914;DHT22;4492;48.736;9.092;2023-04-24T05:50:20;8.00;99.90
8914;DHT22;4492;48.736;9.092;2023-04-24T05:52:46;8.10;99.90
8914;DHT22;4492;48.736;9.092;2023-04-24T05:55:11;8.00;99.90
8914;DHT22;4492;48.736;9.092;2023-04-24T05:57:38;8.00;99.90
8914;DHT22;4492;48.736;9.092;2023-04-24T06:00:04;8.00;99.90
8914;DHT22;4492;48.736;9.092;2023-04-24T06:02:31;8.00;99.90
8914;DHT22;4492;48.736;9.092;2023-04-24T06:04:58;7.90;99.90
8914;DHT22;4492;48.736;9.092;2023-04-24T06:07:25;7.80;99.90
8914;DHT22;4492;48.736;9.092;2023-04-24T06:09:54;7.80;99.90
8914;DHT22;4492;48.736;9.092;2023-04-24T06:12:19;7.70;99.90
8914;DHT22;4492;48.736;9.092;2023-04-24T06:14:45;7.80;99.90
8914;DHT22;4492;48.736;9.092;2023-04-24T06:17:11;7.80;99.90
8914;DHT22;4492;48.736;9.092;2023-04-24T06:19:36;7.80;99.90
8914;DHT22;4492;48.736;9.092;2023-04-24T06:22:02;8.00;99.90
8914;DHT22;4492;48.736;9.092;2023-04-24T06:24:28;8.20;99.90
8914;DHT22;4492;48.736;9.092;2023-04-24T06:26:54;8.40;99.90
8914;DHT22;4492;48.736;9.092;2023-04-24T06:29:20;8.70;99.90
8914;DHT22;4492;48.736;9.092;2023-04-24T06:31:45;8.90;99.90
8914;DHT22;4492;48.736;9.092;2023-04-24T06:34:11;9.10;99.90
8914;DHT22;4492;48.736;9.092;2023-04-24T06:36:37;9.30;99.90
8914;DHT22;4492;48.736;9.092;2023-04-24T06:39:03;9.50;99.90
8914;DHT22;4492;48.736;9.092;2023-04-24T06:41:29;9.60;99.90
8914;DHT22;4492;48.736;9.092;2023-04-24T06:43:55;9.80;99.90
8914;DHT22;4492;48.736;9.092;2023-04-24T06:46:21;9.90;99.90
8914;DHT22;4492;48.736;9.092;2023-04-24T06:48:52;9.90;99.90
8914;DHT22;4492;48.736;9.092;2023-04-24T06:51:22;10.20;99.90
8914;DHT22;4492;48.736;9.092;2023-04-24T06:53:48;10.40;99.90
8914;DHT22;4492;48.736;9.092;2023-04-24T06:56:13;10.60;99.90
8914;DHT22;4492;48.736;9.092;2023-04-24T06:58:39;10.70;99.90
8914;DHT22;4492;48.736;9.092;2023-04-24T07:01:05;10.70;99.90
8914;DHT22;4492;48.736;9.092;2023-04-24T07:03:30;10.80;99.90
8914;DHT22;4492;48.736;9.092;2023-04-24T07:05:56;10.80;99.90
8914;DHT22;4492;48.736;9.092;2023-04-24T07:08:23;10.90;99.90
8914;DHT22;4492;48.736;9.092;2023-04-24T07:10:49;11.00;99.90
8914;DHT22;4492;48.736;9.092;2023-04-24T07:13:16;11.00;99.90
8914;DHT22;4492;48.736;9.092;2023-04-24T07:15:42;11.00;99.90
8914;DHT22;4492;48.736;9.092;2023-04-24T07:18:08;10.90;99.90
8914;DHT22;4492;48.736;9.092;2023-04-24T07:20:34;10.90;99.90
8914;DHT22;4492;48.736;9.092;2023-04-24T07:23:00;10.80;99.90
8914;DHT22;4492;48.736;9.092;2023-04-24T07:25:26;10.70;99.90
8914;DHT22;4492;48.736;9.092;2023-04-24T07:27:52;10.70;99.90
8914;DHT22;4492;48.736;9.092;2023-04-24T07:30:18;10.70;99.90
8914;DHT22;4492;48.736;9.092;2023-04-24T07:32:44;10.80;99.90
8914;DHT22;4492;48.736;9.092;2023-04-24T07:35:09;11.00;99.90
8914;DHT22;4492;48.736;9.092;2023-04-24T07:37:36;11.50;99.90
8914;DHT22;4492;48.736;9.092;2023-04-24T07:40:01;11.60;99.90
8914;DHT22;4492;48.736;9.092;2023-04-24T07:42:28;11.70;99.90
8914;DHT22;4492;48.736;9.092;2023-04-24T07:44:55;11.80;99.90
8914;DHT22;4492;48.736;9.092;2023-04-24T07:47:21;11.50;99.90
8914;DHT22;4492;48.736;9.092;2023-04-24T07:49:46;11.30;99.90
8914;DHT22;4492;48.736;9.092;2023-04-24T07:52:12;11.20;99.90
8914;DHT22;4492;48.736;9.092;2023-04-24T07:54:38;11.20;99.90
8914;DHT22;4492;48.736;9.092;2023-04-24T07:57:04;11.40;99.90
8914;DHT22;4492;48.736;9.092;2023-04-24T07:59:32;11.40;99.10
8914;DHT22;4492;48.736;9.092;2023-04-24T08:01:57;11.30;98.60
8914;DHT22;4492;48.736;9.092;2023-04-24T08:04:23;11.20;99.30
8914;DHT22;4492;48.736;9.092;2023-04-24T08:06:49;11.10;99.40
8914;DHT22;4492;48.736;9.092;2023-04-24T08:09:15;11.00;99.90
8914;DHT22;4492;48.736;9.092;2023-04-24T08:11:40;10.90;99.90
8914;DHT22;4492;48.736;9.092;2023-04-24T08:14:06;10.90;99.10
8914;DHT22;4492;48.736;9.092;2023-04-24T08:16:33;10.80;98.90
8914;DHT22;4492;48.736;9.092;2023-04-24T08:18:59;10.70;98.20
8914;DHT22;4492;48.736;9.092;2023-04-24T08:21:24;10.80;98.20
8914;DHT22;4492;48.736;9.092;2023-04-24T08:23:52;10.70;99.10
8914;DHT22;4492;48.736;9.092;2023-04-24T08:26:18;10.90;99.60
8914;DHT22;4492;48.736;9.092;2023-04-24T08:28:44;11.00;98.70
8914;DHT22;4492;48.736;9.092;2023-04-24T08:31:09;11.30;96.80
8914;DHT22;4492;48.736;9.092;2023-04-24T08:33:35;11.50;97.10
8914;DHT22;4492;48.736;9.092;2023-04-24T08:36:05;11.70;96.80
8914;DHT22;4492;48.736;9.092;2023-04-24T08:38:31;11.90;98.40
8914;DHT22;4492;48.736;9.092;2023-04-24T08:40:59;12.10;95.10
8914;DHT22;4492;48.736;9.092;2023-04-24T08:43:25;12.20;95.20
8914;DHT22;4492;48.736;9.092;2023-04-24T08:45:52;12.40;95.20
8914;DHT22;4492;48.736;9.092;2023-04-24T08:48:18;12.40;95.60
8914;DHT22;4492;48.736;9.092;2023-04-24T08:50:44;12.50;95.40
8914;DHT22;4492;48.736;9.092;2023-04-24T08:53:10;12.70;94.00
8914;DHT22;4492;48.736;9.092;2023-04-24T08:55:37;12.80;94.20
8914;DHT22;4492;48.736;9.092;2023-04-24T08:58:04;12.80;93.90
8914;DHT22;4492;48.736;9.092;2023-04-24T09:00:30;12.70;94.60
8914;DHT22;4492;48.736;9.092;2023-04-24T09:02:56;12.60;95.10
8914;DHT22;4492;48.736;9.092;2023-04-24T09:05:23;12.50;94.50
8914;DHT22;4492;48.736;9.092;2023-04-24T09:07:55;12.20;95.10
8914;DHT22;4492;48.736;9.092;2023-04-24T09:10:24;12.00;95.80
8914;DHT22;4492;48.736;9.092;2023-04-24T09:12:54;11.70;96.50
8914;DHT22;4492;48.736;9.092;2023-04-24T09:15:20;11.40;97.20
8914;DHT22;4492;48.736;9.092;2023-04-24T09:17:46;11.30;96.10
8914;DHT22;4492;48.736;9.092;2023-04-24T09:20:12;11.20;96.10
8914;DHT22;4492;48.736;9.092;2023-04-24T09:22:38;11.00;96.10
8914;DHT22;4492;48.736;9.092;2023-04-24T09:25:08;10.90;96.20
8914;DHT22;4492;48.736;9.092;2023-04-24T09:27:35;10.90;96.10
8914;DHT22;4492;48.736;9.092;2023-04-24T09:30:01;11.10;96.40
8914;DHT22;4492;48.736;9.092;2023-04-24T09:32:27;11.30;95.30
8914;DHT22;4492;48.736;9.092;2023-04-24T09:35:14;11.40;93.60
8914;DHT22;4492;48.736;9.092;2023-04-24T09:37:46;11.60;95.10
8914;DHT22;4492;48.736;9.092;2023-04-24T09:40:19;12.00;95.80
8914;DHT22;4492;48.736;9.092;2023-04-24T09:42:57;12.30;95.60
8914;DHT22;4492;48.736;9.092;2023-04-24T09:45:44;12.40;93.20
8914;DHT22;4492;48.736;9.092;2023-04-24T09:48:10;12.10;92.20
8914;DHT22;4492;48.736;9.092;2023-04-24T09:50:36;11.90;91.80
8914;DHT22;4492;48.736;9.092;2023-04-24T09:53:03;11.70;91.50
8914;DHT22;4492;48.736;9.092;2023-04-24T09:55:29;11.40;91.50
8914;DHT22;4492;48.736;9.092;2023-04-24T09:57:59;11.20;92.50
8914;DHT22;4492;48.736;9.092;2023-04-24T10:00:32;11.20;92.10
8914;DHT22;4492;48.736;9.092;2023-04-24T10:03:03;11.40;92.60
8914;DHT22;4492;48.736;9.092;2023-04-24T10:05:33;11.60;92.30
8914;DHT22;4492;48.736;9.092;2023-04-24T10:08:07;11.80;91.60
8914;DHT22;4492;48.736;9.092;2023-04-24T10:10:37;11.80;90.70
8914;DHT22;4492;48.736;9.092;2023-04-24T10:13:04;11.80;92.10
8914;DHT22;4492;48.736;9.092;2023-04-24T10:15:30;11.80;91.70
8914;DHT22;4492;48.736;9.092;2023-04-24T10:17:58;11.80;91.90
8914;DHT22;4492;48.736;9.092;2023-04-24T10:20:26;11.80;91.30
8914;DHT22;4492;48.736;9.092;2023-04-24T10:22:53;11.80;92.30
8914;DHT22;4492;48.736;9.092;2023-04-24T10:25:25;12.10;90.70
8914;DHT22;4492;48.736;9.092;2023-04-24T10:27:52;12.50;91.00
8914;DHT22;4492;48.736;9.092;2023-04-24T10:30:19;12.80;90.60
8914;DHT22;4492;48.736;9.092;2023-04-24T10:32:45;13.10;90.70
8914;DHT22;4492;48.736;9.092;2023-04-24T10:35:15;13.20;89.80
8914;DHT22;4492;48.736;9.092;2023-04-24T10:37:48;13.10;89.80
8914;DHT22;4492;48.736;9.092;2023-04-24T10:40:18;12.90;88.00
8914;DHT22;4492;48.736;9.092;2023-04-24T10:42:48;12.70;87.60
8914;DHT22;4492;48.736;9.092;2023-04-24T10:45:21;12.30;90.00
8914;DHT22;4492;48.736;9.092;2023-04-24T10:50:28;12.00;90.50
8914;DHT22;4492;48.736;9.092;2023-04-24T10:53:05;11.90;90.80
8914;DHT22;4492;48.736;9.092;2023-04-24T10:55:58;11.80;91.60
8914;DHT22;4492;48.736;9.092;2023-04-24T10:58:26;11.80;92.00
8914;DHT22;4492;48.736;9.092;2023-04-24T11:01:00;11.80;91.80
8914;DHT22;4492;48.736;9.092;2023-04-24T11:03:31;11.70;91.80
8914;DHT22;4492;48.736;9.092;2023-04-24T11:06:06;11.50;92.20
8914;DHT22;4492;48.736;9.092;2023-04-24T11:08:43;11.30;92.30
8914;DHT22;4492;48.736;9.092;2023-04-24T11:11:17;11.20;92.40
8914;DHT22;4492;48.736;9.092;2023-04-24T11:16:34;11.10;93.00
8914;DHT22;4492;48.736;9.092;2023-04-24T11:19:26;11.20;93.20
8914;DHT22;4492;48.736;9.092;2023-04-24T11:24:29;11.70;93.00
8914;DHT22;4492;48.736;9.092;2023-04-24T11:27:20;12.10;92.90
8914;DHT22;4492;48.736;9.092;2023-04-24T11:34:59;13.30;88.60
8914;DHT22;4492;48.736;9.092;2023-04-24T11:37:28;13.00;89.80
8914;DHT22;4492;48.736;9.092;2023-04-24T11:39:56;12.60;90.80
8914;DHT22;4492;48.736;9.092;2023-04-24T11:42:22;12.40;90.50
8914;DHT22;4492;48.736;9.092;2023-04-24T11:44:49;12.00;91.60
8914;DHT22;4492;48.736;9.092;2023-04-24T11:47:17;11.80;92.30
8914;DHT22;4492;48.736;9.092;2023-04-24T11:49:43;11.80;92.20
8914;DHT22;4492;48.736;9.092;2023-04-24T11:52:08;11.90;92.30
8914;DHT22;4492;48.736;9.092;2023-04-24T11:54:34;12.10;92.60
8914;DHT22;4492;48.736;9.092;2023-04-24T11:57:04;12.20;92.20
8914;DHT22;4492;48.736;9.092;2023-04-24T11:59:30;12.40;90.70
8914;DHT22;4492;48.736;9.092;2023-04-24T12:02:00;12.50;90.80
8914;DHT22;4492;48.736;9.092;2023-04-24T12:04:25;12.20;91.30
8914;DHT22;4492;48.736;9.092;2023-04-24T12:07:04;12.20;90.80
8914;DHT22;4492;48.736;9.092;2023-04-24T12:09:43;12.10;91.50
8914;DHT22;4492;48.736;9.092;2023-04-24T12:12:09;11.70;91.60
8914;DHT22;4492;48.736;9.092;2023-04-24T12:15:06;11.40;93.00
8914;DHT22;4492;48.736;9.092;2023-04-24T12:17:35;11.10;93.30
8914;DHT22;4492;48.736;9.092;2023-04-24T12:20:05;11.10;93.00
8914;DHT22;4492;48.736;9.092;2023-04-24T12:25:17;11.20;92.30
8914;DHT22;4492;48.736;9.092;2023-04-24T12:27:52;11.40;92.40
8914;DHT22;4492;48.736;9.092;2023-04-24T12:30:20;11.60;91.70
8914;DHT22;4492;48.736;9.092;2023-04-24T12:32:48;11.90;91.40
8914;DHT22;4492;48.736;9.092;2023-04-24T12:35:22;12.10;90.40
8914;DHT22;4492;48.736;9.092;2023-04-24T12:37:48;12.20;90.00
8914;DHT22;4492;48.736;9.092;2023-04-24T12:40:15;12.50;90.30
8914;DHT22;4492;48.736;9.092;2023-04-24T12:42:49;12.60;90.90
8914;DHT22;4492;48.736;9.092;2023-04-24T12:45:16;12.60;90.60
8914;DHT22;4492;48.736;9.092;2023-04-24T12:47:43;12.40;90.70
8914;DHT22;4492;48.736;9.092;2023-04-24T12:50:14;11.90;92.30
8914;DHT22;4492;48.736;9.092;2023-04-24T12:52:41;11.50;93.40
8914;DHT22;4492;48.736;9.092;2023-04-24T12:55:07;11.30;93.40
8914;DHT22;4492;48.736;9.092;2023-04-24T12:57:35;11.10;93.50
8914;DHT22;4492;48.736;9.092;2023-04-24T13:00:02;10.90;93.90
8914;DHT22;4492;48.736;9.092;2023-04-24T13:02:29;10.60;94.90
8914;DHT22;4492;48.736;9.092;2023-04-24T13:04:57;10.60;95.00
8914;DHT22;4492;48.736;9.092;2023-04-24T13:07:23;10.60;95.80
8914;DHT22;4492;48.736;9.092;2023-04-24T13:09:50;10.50;98.80
8914;DHT22;4492;48.736;9.092;2023-04-24T13:12:16;10.60;99.90
8914;DHT22;4492;48.736;9.092;2023-04-24T13:14:42;10.40;99.90
8914;DHT22;4492;48.736;9.092;2023-04-24T13:17:08;10.60;99.90
8914;DHT22;4492;48.736;9.092;2023-04-24T13:19:39;10.90;99.90
8914;DHT22;4492;48.736;9.092;2023-04-24T13:22:06;11.20;99.90
8914;DHT22;4492;48.736;9.092;2023-04-24T13:24:32;11.60;99.90
8914;DHT22;4492;48.736;9.092;2023-04-24T13:26:59;11.90;99.90
8914;DHT22;4492;48.736;9.092;2023-04-24T13:29:25;12.10;99.30
8914;DHT22;4492;48.736;9.092;2023-04-24T13:31:51;12.20;98.40
8914;DHT22;4492;48.736;9.092;2023-04-24T13:34:19;11.80;97.50
8914;DHT22;4492;48.736;9.092;2023-04-24T13:36:45;11.60;97.60
8914;DHT22;4492;48.736;9.092;2023-04-24T13:39:11;11.30;96.70
8914;DHT22;4492;48.736;9.092;2023-04-24T13:41:37;10.90;96.50
8914;DHT22;4492;48.736;9.092;2023-04-24T13:44:04;10.70;97.30
8914;DHT22;4492;48.736;9.092;2023-04-24T13:46:30;10.50;98.40
8914;DHT22;4492;48.736;9.092;2023-04-24T13:48:56;10.30;99.60
8914;DHT22;4492;48.736;9.092;2023-04-24T13:51:22;10.20;99.90
8914;DHT22;4492;48.736;9.092;2023-04-24T13:53:48;10.00;99.90
8914;DHT22;4492;48.736;9.092;2023-04-24T13:56:14;9.90;99.90
8914;DHT22;4492;48.736;9.092;2023-04-24T13:58:40;10.00;99.90
8914;DHT22;4492;48.736;9.092;2023-04-24T14:01:06;10.30;99.90
8914;DHT22;4492;48.736;9.092;2023-04-24T14:03:32;10.50;99.90
8914;DHT22;4492;48.736;9.092;2023-04-24T14:05:58;10.60;99.90
8914;DHT22;4492;48.736;9.092;2023-04-24T14:08:24;10.60;99.90
8914;DHT22;4492;48.736;9.092;2023-04-24T14:10:50;10.40;99.90
8914;DHT22;4492;48.736;9.092;2023-04-24T14:13:16;10.30;99.90
8914;DHT22;4492;48.736;9.092;2023-04-24T14:15:42;10.20;99.90
8914;DHT22;4492;48.736;9.092;2023-04-24T14:18:08;10.10;99.90
8914;DHT22;4492;48.736;9.092;2023-04-24T14:20:34;10.00;99.90
8914;DHT22;4492;48.736;9.092;2023-04-24T14:22:59;9.70;99.90
8914;DHT22;4492;48.736;9.092;2023-04-24T14:25:25;9.30;99.90
8914;DHT22;4492;48.736;9.092;2023-04-24T14:27:51;8.90;99.90
8914;DHT22;4492;48.736;9.092;2023-04-24T14:30:18;8.80;99.90
8914;DHT22;4492;48.736;9.092;2023-04-24T14:32:44;8.90;99.90
8914;DHT22;4492;48.736;9.092;2023-04-24T14:35:12;8.90;99.90
8914;DHT22;4492;48.736;9.092;2023-04-24T14:37:39;9.00;99.90
8914;DHT22;4492;48.736;9.092;2023-04-24T14:40:07;9.10;99.90
8914;DHT22;4492;48.736;9.092;2023-04-24T14:42:33;9.40;99.90
8914;DHT22;4492;48.736;9.092;2023-04-24T14:44:59;9.60;99.90
8914;DHT22;4492;48.736;9.092;2023-04-24T14:47:25;9.80;99.90
8914;DHT22;4492;48.736;9.092;2023-04-24T14:49:51;10.00;99.90
8914;DHT22;4492;48.736;9.092;2023-04-24T14:52:17;10.20;99.90
8914;DHT22;4492;48.736;9.092;2023-04-24T14:54:43;10.70;99.90
8914;DHT22;4492;48.736;9.092;2023-04-24T14:57:09;11.20;99.90
8914;DHT22;4492;48.736;9.092;2023-04-24T14:59:35;11.50;99.90
8914;DHT22;4492;48.736;9.092;2023-04-24T15:02:00;11.40;99.90
8914;DHT22;4492;48.736;9.092;2023-04-24T15:04:28;11.20;99.90
8914;DHT22;4492;48.736;9.092;2023-04-24T15:06:54;11.00;99.90
8914;DHT22;4492;48.736;9.092;2023-04-24T15:09:21;10.90;99.90
8914;DHT22;4492;48.736;9.092;2023-04-24T15:11:48;10.80;99.90
8914;DHT22;4492;48.736;9.092;2023-04-24T15:14:15;10.60;99.90
8914;DHT22;4492;48.736;9.092;2023-04-24T15:16:41;10.50;99.90
8914;DHT22;4492;48.736;9.092;2023-04-24T15:19:07;10.30;99.90
8914;DHT22;4492;48.736;9.092;2023-04-24T15:21:32;10.20;99.90
8914;DHT22;4492;48.736;9.092;2023-04-24T15:23:58;10.10;99.90
8914;DHT22;4492;48.736;9.092;2023-04-24T15:26:25;10.00;99.90
8914;DHT22;4492;48.736;9.092;2023-04-24T15:28:55;10.00;99.90
8914;DHT22;4492;48.736;9.092;2023-04-24T15:31:20;10.00;99.90
8914;DHT22;4492;48.736;9.092;2023-04-24T15:33:48;10.00;99.90
8914;DHT22;4492;48.736;9.092;2023-04-24T15:36:15;10.00;99.90
8914;DHT22;4492;48.736;9.092;2023-04-24T15:38:41;9.90;99.90
8914;DHT22;4492;48.736;9.092;2023-04-24T15:41:07;9.90;99.90
8914;DHT22;4492;48.736;9.092;2023-04-24T15:43:33;9.90;99.90
8914;DHT22;4492;48.736;9.092;2023-04-24T15:46:00;10.00;99.90
8914;DHT22;4492;48.736;9.092;2023-04-24T15:48:27;10.00;99.90
8914;DHT22;4492;48.736;9.092;2023-04-24T15:50:53;10.10;99.90
8914;DHT22;4492;48.736;9.092;2023-04-24T15:53:19;10.10;99.90
8914;DHT22;4492;48.736;9.092;2023-04-24T15:55:49;10.10;99.90
8914;DHT22;4492;48.736;9.092;2023-04-24T15:58:16;10.10;99.90
8914;DHT22;4492;48.736;9.092;2023-04-24T16:00:41;10.30;99.90
8914;DHT22;4492;48.736;9.092;2023-04-24T16:03:07;10.60;99.90
8914;DHT22;4492;48.736;9.092;2023-04-24T16:05:33;10.80;99.90
8914;DHT22;4492;48.736;9.092;2023-04-24T16:07:59;11.00;99.90
8914;DHT22;4492;48.736;9.092;2023-04-24T16:10:25;10.90;99.90
8914;DHT22;4492;48.736;9.092;2023-04-24T16:12:51;10.70;99.90
8914;DHT22;4492;48.736;9.092;2023-04-24T16:15:19;10.70;99.90
8914;DHT22;4492;48.736;9.092;2023-04-24T16:17:45;10.80;99.90
8914;DHT22;4492;48.736;9.092;2023-04-24T16:20:12;10.80;99.90
8914;DHT22;4492;48.736;9.092;2023-04-24T16:22:38;10.70;99.90
8914;DHT22;4492;48.736;9.092;2023-04-24T16:25:07;10.80;99.90